Time;durP1;ratioP1;P1;durP2;ratioP2;P2;SDS_P1;SDS_P2;PMS_P1;PMS_P2;Temp;Humidity;BMP_temperature;BMP_pressure;BME280_temperature;BME280_humidity;BME280_pressure;Samples;Min_cycle;Max_cycle;Signal;HPM_P1;HPM_P2
2023/08/14 00:02:50;;;;;;;11.73;7.27;;;;;;;;;;2615738;54;20434;-74
2023/08/14 00:08:20;;;;;;;10.63;7.53;;;;;;;;;;2615313;54;20423;-75
2023/08/14 00:13:51;;;;;;;11.93;7.23;;;;;;;;;;2615214;54;20362;-73
2023/08/14 00:19:20;;;;;;;15.00;7.30;;;;;;;;;;2615979;54;20427;-74
2023/08/14 00:24:50;;;;;;;10.17;7.13;;;;;;;;;;2616250;39;20759;-73
2023/08/14 00:30:20;;;;;;;10.20;6.17;;;;;;;;;;2615521;54;20418;-74
2023/08/14 00:35:49;;;;;;;8.37;5.43;;;;;;;;;;2615812;54;20359;-71
2023/08/14 00:41:20;;;;;;;12.60;6.97;;;;;;;;;;2615957;54;20929;-72
2023/08/14 00:50:22;;;;;;;6.90;6.20;;;;;;;;;;2615142;54;20394;-71
2023/08/14 00:55:51;;;;;;;6.67;5.93;;;;;;;;;;2615082;54;20535;-74
2023/08/14 01:01:21;;;;;;;9.67;7.27;;;;;;;;;;2615377;54;20375;-73
2023/08/14 01:06:50;;;;;;;8.70;6.30;;;;;;;;;;2615087;54;20410;-75
2023/08/14 01:12:26;;;;;;;9.13;6.43;;;;;;;;;;2615000;46;20390;-72
2023/08/14 01:18:00;;;;;;;7.50;5.70;;;;;;;;;;2615490;39;20796;-72
2023/08/14 01:23:33;;;;;;;11.97;5.50;;;;;;;;;;2615460;39;20771;-72
2023/08/14 01:29:03;;;;;;;10.57;6.10;;;;;;;;;;2614586;46;20407;-71
2023/08/14 01:34:33;;;;;;;8.57;6.37;;;;;;;;;;2614855;54;20394;-72
2023/08/14 01:37:17;;;;;;;11.80;5.83;;;;;;;;;;2614851;54;20436;-72
2023/08/14 01:39:47;;;;;;;7.00;5.23;;;;;;;;;;2614765;54;21187;-71
2023/08/14 01:45:19;;;;;;;9.23;6.07;;;;;;;;;;2615161;54;20351;-71
2023/08/14 01:50:49;;;;;;;8.60;6.30;;;;;;;;;;2615047;54;20519;-71
2023/08/14 01:56:18;;;;;;;9.90;6.37;;;;;;;;;;2614826;54;20395;-72
2023/08/14 02:01:48;;;;;;;10.83;6.00;;;;;;;;;;2615080;54;20351;-72
2023/08/14 02:07:18;;;;;;;9.07;6.30;;;;;;;;;;2614977;46;20377;-71
2023/08/14 02:12:48;;;;;;;9.03;6.57;;;;;;;;;;2614632;54;20402;-71
2023/08/14 02:18:17;;;;;;;10.80;6.73;;;;;;;;;;2615028;54;20355;-72
2023/08/14 02:23:47;;;;;;;10.03;5.97;;;;;;;;;;2615448;54;20367;-73
2023/08/14 02:29:18;;;;;;;10.90;6.17;;;;;;;;;;2614830;39;20787;-72
2023/08/14 02:34:48;;;;;;;10.33;7.03;;;;;;;;;;2614968;54;20427;-71
2023/08/14 02:40:18;;;;;;;10.23;6.10;;;;;;;;;;2614834;54;20387;-74
2023/08/14 02:45:47;;;;;;;12.93;6.73;;;;;;;;;;2614529;54;20411;-74
2023/08/14 02:54:58;;;;;;;8.43;6.50;;;;;;;;;;2614845;54;20463;-73
2023/08/14 03:00:27;;;;;;;9.70;6.23;;;;;;;;;;2614372;54;21214;-73
2023/08/14 03:05:58;;;;;;;10.90;6.60;;;;;;;;;;2614621;54;20378;-74
2023/08/14 03:11:27;;;;;;;11.63;8.77;;;;;;;;;;2614092;54;20913;-74
2023/08/14 03:16:57;;;;;;;11.60;6.50;;;;;;;;;;2614211;54;20362;-74
2023/08/14 03:22:27;;;;;;;10.20;7.60;;;;;;;;;;2614162;54;20403;-74
2023/08/14 03:27:56;;;;;;;10.73;6.37;;;;;;;;;;2614567;54;20378;-74
2023/08/14 03:33:26;;;;;;;11.77;7.20;;;;;;;;;;2615534;54;20973;-73
2023/08/14 03:38:56;;;;;;;12.17;6.80;;;;;;;;;;2615420;54;20387;-73
2023/08/14 03:44:26;;;;;;;10.50;6.80;;;;;;;;;;2614964;46;20402;-73
2023/08/14 03:49:55;;;;;;;12.93;7.50;;;;;;;;;;2615247;54;20394;-75
2023/08/14 03:55:25;;;;;;;10.20;7.50;;;;;;;;;;2615435;54;20474;-74
2023/08/14 04:00:54;;;;;;;11.97;6.57;;;;;;;;;;2615892;39;21039;-75
2023/08/14 04:06:24;;;;;;;9.87;7.60;;;;;;;;;;2615582;54;20355;-74
2023/08/14 04:11:54;;;;;;;12.30;6.90;;;;;;;;;;2614360;46;20383;-74
2023/08/14 04:17:23;;;;;;;13.00;7.20;;;;;;;;;;2615131;46;20402;-75
2023/08/14 04:22:53;;;;;;;9.30;7.10;;;;;;;;;;2615082;54;20355;-75
2023/08/14 04:28:23;;;;;;;8.07;6.83;;;;;;;;;;2614843;54;20367;-73
2023/08/14 04:33:53;;;;;;;13.13;7.53;;;;;;;;;;2614646;54;20415;-75
2023/08/14 04:39:22;;;;;;;12.83;8.30;;;;;;;;;;2615197;54;20383;-75
2023/08/14 04:44:52;;;;;;;11.13;8.90;;;;;;;;;;2614932;54;20495;-74
2023/08/14 04:50:22;;;;;;;13.60;10.30;;;;;;;;;;2614733;54;20387;-73
2023/08/14 04:59:36;;;;;;;10.97;8.33;;;;;;;;;;2614864;54;20475;-75
2023/08/14 05:05:05;;;;;;;12.60;8.60;;;;;;;;;;2614799;54;20937;-74
2023/08/14 05:10:35;;;;;;;15.47;9.80;;;;;;;;;;2614868;54;20399;-74
2023/08/14 05:16:05;;;;;;;15.77;9.23;;;;;;;;;;2614931;54;20359;-74
2023/08/14 05:21:34;;;;;;;15.90;8.97;;;;;;;;;;2615649;39;20848;-74
2023/08/14 05:27:05;;;;;;;16.87;8.70;;;;;;;;;;2615603;39;20746;-73
2023/08/14 05:32:35;;;;;;;12.60;8.80;;;;;;;;;;2614996;54;20382;-75
2023/08/14 05:38:05;;;;;;;13.57;9.40;;;;;;;;;;2614570;54;20383;-74
2023/08/14 05:43:34;;;;;;;17.90;8.70;;;;;;;;;;2614869;54;20386;-75
2023/08/14 05:49:04;;;;;;;12.63;8.30;;;;;;;;;;2614452;54;20380;-74
2023/08/14 05:54:34;;;;;;;9.10;7.77;;;;;;;;;;2615486;39;20789;-74
2023/08/14 06:00:05;;;;;;;7.50;6.83;;;;;;;;;;2614681;54;20463;-73
2023/08/14 06:05:34;;;;;;;12.07;9.60;;;;;;;;;;2614787;54;20347;-73
2023/08/14 06:11:04;;;;;;;11.40;7.67;;;;;;;;;;2614796;54;20430;-73
2023/08/14 06:16:33;;;;;;;14.10;9.20;;;;;;;;;;2614588;54;20464;-74
2023/08/14 06:22:05;;;;;;;10.43;9.30;;;;;;;;;;2614670;54;20367;-73
2023/08/14 06:27:34;;;;;;;9.50;8.50;;;;;;;;;;2614381;54;20526;-74
2023/08/14 06:33:04;;;;;;;9.87;8.80;;;;;;;;;;2614534;54;20363;-72
2023/08/14 06:38:35;;;;;;;9.13;8.20;;;;;;;;;;2614660;54;20351;-75
2023/08/14 06:44:06;;;;;;;9.10;8.07;;;;;;;;;;2614108;54;21362;-74
2023/08/14 06:49:36;;;;;;;12.17;8.30;;;;;;;;;;2614958;39;20787;-73
2023/08/14 06:55:06;;;;;;;9.83;8.40;;;;;;;;;;2614623;54;20414;-74
2023/08/14 07:00:35;;;;;;;10.57;9.47;;;;;;;;;;2614732;54;20431;-74
2023/08/14 07:06:05;;;;;;;10.27;9.47;;;;;;;;;;2614461;54;20363;-73
2023/08/14 07:11:38;;;;;;;10.60;9.80;;;;;;;;;;2614278;54;20926;-73
2023/08/14 07:17:08;;;;;;;10.77;9.80;;;;;;;;;;2615230;54;20875;-74
2023/08/14 07:22:38;;;;;;;10.80;9.87;;;;;;;;;;2615703;54;20435;-74
2023/08/14 07:28:07;;;;;;;16.50;10.17;;;;;;;;;;2615910;54;20408;-73
2023/08/14 07:33:37;;;;;;;12.23;9.93;;;;;;;;;;2615792;54;20399;-73
2023/08/14 07:39:06;;;;;;;9.80;9.03;;;;;;;;;;2615617;54;20491;-74
2023/08/14 07:44:36;;;;;;;11.30;10.10;;;;;;;;;;2615839;54;20379;-74
2023/08/14 07:50:06;;;;;;;10.40;9.40;;;;;;;;;;2615394;54;20435;-73
2023/08/14 07:55:36;;;;;;;9.83;8.90;;;;;;;;;;2615897;39;20750;-74
2023/08/14 08:04:37;;;;;;;9.50;8.80;;;;;;;;;;2615667;54;20453;-73
2023/08/14 08:10:07;;;;;;;10.00;9.30;;;;;;;;;;2615451;54;20467;-74
2023/08/14 08:15:37;;;;;;;9.97;9.17;;;;;;;;;;2615925;54;20933;-74
2023/08/14 08:21:07;;;;;;;10.97;10.00;;;;;;;;;;2615925;54;20992;-74
2023/08/14 08:26:36;;;;;;;11.07;10.17;;;;;;;;;;2615595;54;20415;-73
2023/08/14 08:32:08;;;;;;;11.47;10.30;;;;;;;;;;2615625;31;20870;-73
2023/08/14 08:37:37;;;;;;;10.13;9.43;;;;;;;;;;2614526;54;20394;-73
2023/08/14 08:43:08;;;;;;;11.27;10.27;;;;;;;;;;2615055;54;20475;-73
2023/08/14 08:48:41;;;;;;;12.70;11.63;;;;;;;;;;2614456;54;20495;-73
2023/08/14 08:54:14;;;;;;;10.73;10.13;;;;;;;;;;2614627;54;20507;-73
2023/08/14 08:59:44;;;;;;;11.20;10.30;;;;;;;;;;2614944;54;20390;-73
2023/08/14 09:05:14;;;;;;;10.40;9.80;;;;;;;;;;2614589;54;20574;-73
2023/08/14 09:10:43;;;;;;;11.23;10.23;;;;;;;;;;2614840;54;20362;-74
2023/08/14 09:16:15;;;;;;;10.57;9.87;;;;;;;;;;2615028;54;20383;-74
2023/08/14 09:21:44;;;;;;;11.40;10.60;;;;;;;;;;2614830;54;20363;-73
2023/08/14 09:27:15;;;;;;;10.73;10.13;;;;;;;;;;2614399;54;20358;-73
2023/08/14 09:32:44;;;;;;;11.43;10.53;;;;;;;;;;2614830;54;20383;-73
2023/08/14 09:38:15;;;;;;;10.80;10.20;;;;;;;;;;2614434;54;20367;-73
2023/08/14 09:43:45;;;;;;;10.90;10.30;;;;;;;;;;2614708;54;20391;-73
2023/08/14 09:49:17;;;;;;;11.57;11.00;;;;;;;;;;2614975;54;20422;-71
2023/08/14 09:54:48;;;;;;;11.00;10.30;;;;;;;;;;2614888;54;20355;-70
2023/08/14 10:00:17;;;;;;;10.90;10.30;;;;;;;;;;2614364;54;20435;-72
2023/08/14 10:09:22;;;;;;;11.60;10.90;;;;;;;;;;2614405;39;20777;-73
2023/08/14 10:14:55;;;;;;;11.70;10.80;;;;;;;;;;2614635;54;20419;-71
2023/08/14 10:20:27;;;;;;;11.23;10.37;;;;;;;;;;2615050;54;20905;-71
2023/08/14 10:25:57;;;;;;;12.43;11.63;;;;;;;;;;2614877;39;20783;-70
2023/08/14 10:31:27;;;;;;;12.63;11.50;;;;;;;;;;2615010;54;20909;-71
2023/08/14 10:36:57;;;;;;;11.37;10.57;;;;;;;;;;2615151;54;20423;-71
2023/08/14 10:42:26;;;;;;;11.03;10.30;;;;;;;;;;2614836;54;20367;-71
2023/08/14 10:48:00;;;;;;;11.83;11.07;;;;;;;;;;2614237;54;20885;-71
2023/08/14 10:53:31;;;;;;;11.83;11.20;;;;;;;;;;2615259;39;21123;-70
2023/08/14 10:59:00;;;;;;;10.03;9.40;;;;;;;;;;2615504;54;20430;-74
2023/08/14 11:04:30;;;;;;;11.50;10.80;;;;;;;;;;2615549;54;20423;-74
2023/08/14 11:10:03;;;;;;;11.20;10.43;;;;;;;;;;2615143;39;20556;-74
2023/08/14 11:15:32;;;;;;;10.03;9.47;;;;;;;;;;2615097;54;20394;-74
2023/08/14 11:21:02;;;;;;;10.90;10.10;;;;;;;;;;2614844;54;20414;-74
2023/08/14 11:26:31;;;;;;;10.17;9.67;;;;;;;;;;2615567;39;20744;-74
2023/08/14 11:32:01;;;;;;;10.50;9.80;;;;;;;;;;2616047;39;20780;-74
2023/08/14 11:37:31;;;;;;;11.17;10.23;;;;;;;;;;2615177;54;20379;-73
2023/08/14 11:43:01;;;;;;;10.87;9.97;;;;;;;;;;2615164;54;20510;-74
2023/08/14 11:48:32;;;;;;;12.07;11.27;;;;;;;;;;2615947;54;20917;-74
2023/08/14 11:54:03;;;;;;;10.47;9.77;;;;;;;;;;2615910;54;20350;-74
2023/08/14 11:59:32;;;;;;;11.20;10.30;;;;;;;;;;2616432;54;20342;-74
2023/08/14 12:05:02;;;;;;;11.33;10.50;;;;;;;;;;2616180;54;20391;-75
2023/08/14 12:14:06;;;;;;;11.17;10.50;;;;;;;;;;2615347;54;20410;-71
2023/08/14 12:19:36;;;;;;;12.10;11.30;;;;;;;;;;2615197;54;20402;-71
2023/08/14 12:25:08;;;;;;;11.50;10.73;;;;;;;;;;2614774;54;20366;-72
2023/08/14 12:30:37;;;;;;;12.00;11.20;;;;;;;;;;2615113;54;20400;-71
2023/08/14 12:36:07;;;;;;;11.50;10.70;;;;;;;;;;2615195;54;20379;-71
2023/08/14 12:41:36;;;;;;;12.90;11.60;;;;;;;;;;2614990;54;20387;-71
2023/08/14 12:47:06;;;;;;;12.30;11.50;;;;;;;;;;2615967;31;20856;-70
2023/08/14 12:52:36;;;;;;;12.20;11.40;;;;;;;;;;2615292;54;20359;-70
2023/08/14 12:58:06;;;;;;;12.40;11.37;;;;;;;;;;2615136;39;21165;-71
2023/08/14 13:03:35;;;;;;;11.80;11.20;;;;;;;;;;2614944;54;20391;-71
2023/08/14 13:09:05;;;;;;;12.23;11.30;;;;;;;;;;2615042;54;20508;-70
2023/08/14 13:14:34;;;;;;;13.00;11.70;;;;;;;;;;2614708;54;21000;-71
2023/08/14 13:20:04;;;;;;;11.67;10.87;;;;;;;;;;2615006;54;20386;-72
2023/08/14 13:25:34;;;;;;;11.50;10.80;;;;;;;;;;2615183;54;20359;-71
2023/08/14 13:31:06;;;;;;;11.90;11.10;;;;;;;;;;2615096;54;20367;-71
2023/08/14 13:36:36;;;;;;;12.13;11.23;;;;;;;;;;2614835;54;20371;-74
2023/08/14 13:42:05;;;;;;;11.70;10.90;;;;;;;;;;2616080;39;20789;-75
2023/08/14 13:47:35;;;;;;;11.17;10.57;;;;;;;;;;2615342;54;20358;-74
2023/08/14 13:53:05;;;;;;;12.17;11.27;;;;;;;;;;2615988;54;20387;-74
2023/08/14 13:58:34;;;;;;;12.00;11.20;;;;;;;;;;2615283;54;20400;-75
2023/08/14 14:04:04;;;;;;;12.00;11.27;;;;;;;;;;2615659;54;20371;-74
2023/08/14 14:09:34;;;;;;;11.30;10.70;;;;;;;;;;2615098;54;21017;-74
2023/08/14 14:18:44;;;;;;;12.53;11.63;;;;;;;;;;2614981;54;20416;-74
2023/08/14 14:24:14;;;;;;;13.30;12.20;;;;;;;;;;2615261;39;20689;-74
2023/08/14 14:29:44;;;;;;;12.80;11.80;;;;;;;;;;2614479;54;20375;-73
2023/08/14 14:35:13;;;;;;;11.77;10.97;;;;;;;;;;2615145;46;20366;-74
2023/08/14 14:40:43;;;;;;;12.27;11.67;;;;;;;;;;2614616;54;20339;-74
2023/08/14 14:46:12;;;;;;;13.63;12.63;;;;;;;;;;2614590;54;20395;-74
2023/08/14 14:51:42;;;;;;;11.57;10.90;;;;;;;;;;2614471;54;20358;-74
2023/08/14 14:57:12;;;;;;;12.37;11.60;;;;;;;;;;2614389;54;21248;-75
2023/08/14 15:02:41;;;;;;;12.50;11.60;;;;;;;;;;2614820;54;20892;-74
2023/08/14 15:08:11;;;;;;;12.60;11.77;;;;;;;;;;2614763;54;20425;-74
2023/08/14 15:13:41;;;;;;;12.90;11.73;;;;;;;;;;2614549;46;20378;-74
2023/08/14 15:19:14;;;;;;;11.27;10.47;;;;;;;;;;2614558;54;20387;-73
2023/08/14 15:24:43;;;;;;;11.77;10.80;;;;;;;;;;2615378;54;20394;-74
2023/08/14 15:30:14;;;;;;;10.97;10.37;;;;;;;;;;2615219;54;20347;-75
2023/08/14 15:35:44;;;;;;;11.40;10.70;;;;;;;;;;2615273;54;21116;-74
2023/08/14 15:41:13;;;;;;;11.33;10.53;;;;;;;;;;2615652;54;20411;-75
2023/08/14 15:46:43;;;;;;;13.50;11.73;;;;;;;;;;2615075;54;20363;-76
2023/08/14 15:52:15;;;;;;;10.83;10.13;;;;;;;;;;2615155;54;20355;-74
2023/08/14 15:57:44;;;;;;;10.50;9.60;;;;;;;;;;2615069;54;20384;-74
2023/08/14 16:03:14;;;;;;;10.17;9.60;;;;;;;;;;2615130;54;20411;-73
2023/08/14 16:08:44;;;;;;;9.90;9.20;;;;;;;;;;2615490;54;20363;-74
2023/08/14 16:14:13;;;;;;;10.57;9.77;;;;;;;;;;2616039;31;20874;-75
2023/08/14 16:19:43;;;;;;;9.50;8.80;;;;;;;;;;2615133;54;20383;-76
2023/08/14 16:25:12;;;;;;;11.10;10.10;;;;;;;;;;2614864;54;20442;-75
2023/08/14 16:30:42;;;;;;;10.10;9.50;;;;;;;;;;2614952;54;20957;-76
2023/08/14 16:36:12;;;;;;;11.90;10.87;;;;;;;;;;2614781;54;20472;-76
2023/08/14 16:41:43;;;;;;;10.63;9.83;;;;;;;;;;2615485;54;20407;-74
2023/08/14 16:47:12;;;;;;;9.97;9.37;;;;;;;;;;2615049;39;20727;-72
2023/08/14 16:52:42;;;;;;;11.80;10.63;;;;;;;;;;2614782;54;20391;-70
2023/08/14 16:58:12;;;;;;;11.17;10.43;;;;;;;;;;2615265;39;20769;-71
2023/08/14 17:03:42;;;;;;;10.50;9.90;;;;;;;;;;2615071;54;20455;-70
2023/08/14 17:09:13;;;;;;;11.17;10.37;;;;;;;;;;2615252;39;20784;-70
2023/08/14 17:20:50;;;;;;;10.87;9.90;;;;;;;;;;2615613;39;20462;-71
2023/08/14 17:26:19;;;;;;;10.27;9.67;;;;;;;;;;2614969;54;20386;-74
2023/08/14 17:31:50;;;;;;;10.03;9.23;;;;;;;;;;2614996;46;20384;-71
2023/08/14 17:37:19;;;;;;;10.17;9.57;;;;;;;;;;2614706;54;20358;-71
2023/08/14 17:42:49;;;;;;;9.50;8.87;;;;;;;;;;2614913;54;20474;-71
2023/08/14 17:48:19;;;;;;;10.50;9.77;;;;;;;;;;2614983;54;20366;-71
2023/08/14 17:53:49;;;;;;;9.70;9.00;;;;;;;;;;2615145;54;20350;-72
2023/08/14 17:59:18;;;;;;;8.93;8.13;;;;;;;;;;2615160;54;20355;-71
2023/08/14 18:04:48;;;;;;;9.33;8.60;;;;;;;;;;2614949;54;20370;-72
2023/08/14 18:10:18;;;;;;;8.23;7.53;;;;;;;;;;2615296;54;20379;-71
2023/08/14 18:19:28;;;;;;;9.87;8.93;;;;;;;;;;2614842;54;20374;-72
2023/08/14 18:24:58;;;;;;;10.90;9.80;;;;;;;;;;2614529;54;20534;-71
2023/08/14 18:30:27;;;;;;;10.57;9.80;;;;;;;;;;2614653;54;20347;-72
2023/08/14 18:35:57;;;;;;;9.43;8.53;;;;;;;;;;2614666;54;20394;-71
2023/08/14 18:41:27;;;;;;;12.00;9.20;;;;;;;;;;2614581;54;20374;-69
2023/08/14 18:46:56;;;;;;;10.40;9.50;;;;;;;;;;2614480;54;20953;-70
2023/08/14 18:52:26;;;;;;;9.17;8.47;;;;;;;;;;2614575;54;20355;-71
2023/08/14 18:57:56;;;;;;;9.07;8.47;;;;;;;;;;2613535;54;20382;-71
2023/08/14 19:03:25;;;;;;;9.33;8.50;;;;;;;;;;2614257;54;20941;-70
2023/08/14 19:08:55;;;;;;;9.23;8.63;;;;;;;;;;2614699;54;20355;-74
2023/08/14 19:14:25;;;;;;;8.70;8.00;;;;;;;;;;2614256;54;20494;-73
2023/08/14 19:19:54;;;;;;;8.97;8.17;;;;;;;;;;2614362;54;20446;-73
2023/08/14 19:25:24;;;;;;;10.00;9.10;;;;;;;;;;2614355;47;20948;-73
2023/08/14 19:30:54;;;;;;;12.63;9.20;;;;;;;;;;2614518;39;21102;-74
2023/08/14 19:36:23;;;;;;;8.77;8.13;;;;;;;;;;2614182;47;20384;-73
2023/08/14 19:41:53;;;;;;;8.93;8.13;;;;;;;;;;2614690;54;20367;-71
2023/08/14 19:47:23;;;;;;;8.87;7.70;;;;;;;;;;2614527;54;20391;-71
2023/08/14 19:52:52;;;;;;;8.73;8.03;;;;;;;;;;2614195;54;20384;-72
2023/08/14 19:58:22;;;;;;;9.57;8.80;;;;;;;;;;2614284;54;20404;-71
2023/08/14 20:03:52;;;;;;;12.73;8.33;;;;;;;;;;2614544;54;20379;-72
2023/08/14 20:09:21;;;;;;;8.80;8.23;;;;;;;;;;2615230;54;20415;-72
2023/08/14 20:14:51;;;;;;;8.70;7.90;;;;;;;;;;2615087;54;20387;-73
2023/08/14 20:24:01;;;;;;;9.10;8.20;;;;;;;;;;2615548;39;20761;-72
2023/08/14 20:29:31;;;;;;;9.47;8.77;;;;;;;;;;2614977;54;20374;-71
2023/08/14 20:35:03;;;;;;;8.23;7.63;;;;;;;;;;2614917;54;20406;-70
2023/08/14 20:40:33;;;;;;;8.33;7.73;;;;;;;;;;2615332;54;21006;-72
2023/08/14 20:46:02;;;;;;;8.17;7.47;;;;;;;;;;2614676;54;20367;-72
2023/08/14 20:51:32;;;;;;;7.63;7.03;;;;;;;;;;2615029;54;20367;-74
2023/08/14 20:57:01;;;;;;;8.30;7.70;;;;;;;;;;2615345;39;20855;-71
2023/08/14 21:02:31;;;;;;;8.97;8.27;;;;;;;;;;2615328;39;20772;-71
2023/08/14 21:08:01;;;;;;;8.40;7.70;;;;;;;;;;2615188;54;20342;-71
2023/08/14 21:13:30;;;;;;;8.47;7.77;;;;;;;;;;2615301;54;20363;-71
2023/08/14 21:19:00;;;;;;;9.30;8.40;;;;;;;;;;2614942;54;20419;-73
2023/08/14 21:24:30;;;;;;;8.40;7.63;;;;;;;;;;2614756;54;20450;-71
2023/08/14 21:30:01;;;;;;;7.90;7.30;;;;;;;;;;2615908;39;20883;-75
2023/08/14 21:35:31;;;;;;;7.30;6.70;;;;;;;;;;2616520;31;20799;-75
2023/08/14 21:41:03;;;;;;;9.00;8.40;;;;;;;;;;2615631;54;20391;-74
2023/08/14 21:46:34;;;;;;;8.63;7.20;;;;;;;;;;2615817;39;20772;-75
2023/08/14 21:52:04;;;;;;;8.27;7.57;;;;;;;;;;2615621;54;20390;-75
2023/08/14 21:57:34;;;;;;;8.10;7.40;;;;;;;;;;2615579;54;20933;-74
2023/08/14 22:03:04;;;;;;;7.70;7.10;;;;;;;;;;2615287;54;20390;-74
2023/08/14 22:08:33;;;;;;;8.93;8.03;;;;;;;;;;2615162;54;20375;-74
2023/08/14 22:14:03;;;;;;;7.87;6.80;;;;;;;;;;2615262;54;20391;-74
2023/08/14 22:19:33;;;;;;;8.00;7.30;;;;;;;;;;2615869;39;21086;-74
2023/08/14 22:31:13;;;;;;;8.30;7.50;;;;;;;;;;2615076;54;20423;-74
2023/08/14 22:36:43;;;;;;;8.53;7.67;;;;;;;;;;2615792;39;20711;-74
2023/08/14 22:42:12;;;;;;;7.57;6.90;;;;;;;;;;2614604;54;20403;-73
2023/08/14 22:47:42;;;;;;;7.83;7.03;;;;;;;;;;2614307;54;20487;-73
2023/08/14 22:53:12;;;;;;;8.90;7.50;;;;;;;;;;2614560;54;20394;-73
2023/08/14 22:58:42;;;;;;;11.17;9.10;;;;;;;;;;2614174;54;20415;-72
2023/08/14 23:04:12;;;;;;;8.17;7.37;;;;;;;;;;2614897;54;20490;-72
2023/08/14 23:09:41;;;;;;;8.57;7.77;;;;;;;;;;2614640;54;20363;-72
2023/08/14 23:15:11;;;;;;;8.23;7.50;;;;;;;;;;2614609;54;20430;-73
2023/08/14 23:20:41;;;;;;;7.73;7.03;;;;;;;;;;2614465;54;21154;-73
2023/08/14 23:29:46;;;;;;;9.50;7.40;;;;;;;;;;2614744;39;21215;-73
2023/08/14 23:35:15;;;;;;;8.53;7.70;;;;;;;;;;2614343;54;20423;-74
2023/08/14 23:40:45;;;;;;;7.90;7.30;;;;;;;;;;2614479;54;20359;-73
2023/08/14 23:46:14;;;;;;;7.67;7.07;;;;;;;;;;2615020;54;20354;-73
2023/08/14 23:51:44;;;;;;;8.27;7.57;;;;;;;;;;2615699;54;20479;-71
2023/08/14 23:57:14;;;;;;;7.80;7.00;;;;;;;;;;2614929;54;20395;-72
